createdAt,value
2023-12-13T00:00:24.090Z,94015.00
2023-12-13T00:01:24.161Z,94010.00
2023-12-13T00:02:24.088Z,94007.00
2023-12-13T00:03:24.126Z,94013.00
2023-12-13T00:04:24.085Z,94016.00
2023-12-13T00:05:24.110Z,94018.00
2023-12-13T00:06:24.048Z,94018.00
2023-12-13T00:56:33.001Z,94023.00
2023-12-13T00:57:23.606Z,94016.00
2023-12-13T00:58:23.604Z,94009.00
2023-12-13T00:59:23.575Z,94002.00
2023-12-13T01:00:24.573Z,93995.00
2023-12-13T01:01:23.611Z,93983.00
2023-12-13T01:02:23.568Z,93966.00
2023-12-13T01:03:23.570Z,93955.00
2023-12-13T01:04:23.631Z,93961.00
2023-12-13T01:05:23.641Z,93976.00
2023-12-13T01:06:23.534Z,93991.00
2023-12-13T01:07:23.569Z,94001.00
2023-12-13T01:08:23.504Z,93997.00
2023-12-13T01:09:23.491Z,93988.00
2023-12-13T01:10:23.816Z,93988.00
2023-12-13T01:11:23.480Z,93986.00
2023-12-13T01:12:23.491Z,93979.00
2023-12-13T01:13:23.511Z,93978.00
2023-12-13T01:14:23.493Z,93987.00
2023-12-13T01:15:23.444Z,93997.00
2023-12-13T01:16:23.477Z,94006.00
2023-12-13T01:17:23.441Z,94008.00
2023-12-13T01:18:24.483Z,94009.00
2023-12-13T01:19:23.544Z,94007.00
2023-12-13T01:20:23.410Z,94006.00
2023-12-13T01:21:23.389Z,94006.00
2023-12-13T01:22:23.399Z,94004.00
2023-12-13T01:23:23.371Z,94003.00
2023-12-13T01:24:23.381Z,93997.00
2023-12-13T01:25:22.392Z,93994.00
2023-12-13T01:26:23.346Z,93993.00
2023-12-13T01:27:23.347Z,93993.00
2023-12-13T01:28:23.474Z,93994.00
2023-12-13T01:29:23.355Z,93994.00
2023-12-13T01:30:23.341Z,93997.00
2023-12-13T01:31:23.328Z,93994.00
2023-12-13T01:32:23.351Z,93998.00
2023-12-13T01:33:23.409Z,93998.00
2023-12-13T01:34:23.300Z,93999.00
2023-12-13T01:35:23.266Z,93993.00
2023-12-13T01:36:23.255Z,93991.00
2023-12-13T01:37:23.315Z,93989.00
2023-12-13T01:38:23.232Z,93990.00
2023-12-13T01:39:23.236Z,93991.00
2023-12-13T01:40:23.243Z,93991.00
2023-12-13T01:41:23.249Z,93993.00
2023-12-13T01:42:23.216Z,93993.00
2023-12-13T01:43:23.241Z,93996.00
2023-12-13T01:44:23.225Z,94000.00
2023-12-13T01:45:23.185Z,94004.00
2023-12-13T01:46:23.181Z,94009.00
2023-12-13T01:47:22.162Z,94012.00
2023-12-13T01:48:23.248Z,94012.00
2023-12-13T01:49:23.205Z,94010.00
2023-12-13T01:50:23.140Z,94009.00
2023-12-13T01:51:23.124Z,94004.00
2023-12-13T01:52:23.157Z,94006.00
2023-12-13T01:53:23.124Z,94008.00
2023-12-13T01:54:23.124Z,94010.00
2023-12-13T01:55:23.157Z,94011.00
2023-12-13T01:56:23.094Z,94005.00
2023-12-13T01:57:23.813Z,94002.00
2023-12-13T01:58:23.105Z,93998.00
2023-12-13T01:59:23.057Z,93997.00
2023-12-13T02:00:23.088Z,93996.00
2023-12-13T02:01:23.182Z,93997.00
2023-12-13T02:02:23.079Z,93998.00
2023-12-13T02:03:23.028Z,94000.00
2023-12-13T02:04:23.042Z,94002.00
2023-12-13T02:05:23.066Z,94003.00
2023-12-13T02:06:22.994Z,94004.00
2023-12-13T02:07:23.070Z,94003.00
2023-12-13T02:08:22.982Z,94001.00
2023-12-13T02:09:22.982Z,93997.00
2023-12-13T02:10:22.985Z,93995.00
2023-12-13T02:11:25.196Z,93993.00
2023-12-13T02:12:21.941Z,93998.00
2023-12-13T02:13:22.948Z,94003.00
2023-12-13T02:14:22.921Z,94011.00
2023-12-13T02:15:22.913Z,94015.00
2023-12-13T02:16:22.019Z,94016.00
2023-12-13T02:17:22.894Z,94017.00
2023-12-13T02:18:22.982Z,94016.00
2023-12-13T02:19:22.924Z,94011.00
2023-12-13T02:20:22.868Z,94005.00
2023-12-13T02:21:22.865Z,94002.00
2023-12-13T02:22:22.874Z,94001.00
2023-12-13T02:23:22.839Z,94004.00
2023-12-13T02:24:22.837Z,94006.00
2023-12-13T02:25:22.870Z,94004.00
2023-12-13T02:26:22.820Z,93996.00
2023-12-13T02:27:22.800Z,93990.00
2023-12-13T02:28:22.827Z,93987.00
2023-12-13T02:29:22.805Z,93990.00
2023-12-13T02:30:22.803Z,93997.00
2023-12-13T02:31:22.805Z,93998.00
2023-12-13T02:32:22.784Z,93992.00
2023-12-13T02:33:22.793Z,93986.00
2023-12-13T02:34:22.773Z,93980.00
2023-12-13T02:35:22.742Z,93985.00
2023-12-13T02:36:22.726Z,93994.00
2023-12-13T02:37:22.722Z,93999.00
2023-12-13T02:38:22.716Z,93992.00
2023-12-13T02:39:21.718Z,93990.00
2023-12-13T02:40:22.736Z,93987.00
2023-12-13T02:41:22.680Z,93987.00
2023-12-13T02:42:22.675Z,93982.00
2023-12-13T02:43:22.885Z,93979.00
2023-12-13T02:44:22.674Z,93976.00
2023-12-13T02:45:22.644Z,93978.00
2023-12-13T02:46:22.641Z,93976.00
2023-12-13T02:47:22.643Z,93972.00
2023-12-13T02:48:22.698Z,93967.00
2023-12-13T02:49:22.711Z,93965.00
2023-12-13T02:50:22.623Z,93964.00
2023-12-13T02:51:22.605Z,93958.00
2023-12-13T02:52:22.618Z,93949.00
2023-12-13T02:53:22.584Z,93935.00
2023-12-13T02:54:22.566Z,93927.00
2023-12-13T02:55:22.593Z,93925.00
2023-12-13T02:56:22.572Z,93927.00
2023-12-13T02:57:22.551Z,93927.00
2023-12-13T02:58:22.597Z,93927.00
2023-12-13T02:59:22.528Z,93925.00
2023-12-13T03:00:22.526Z,93926.00
2023-12-13T03:01:22.581Z,93927.00
2023-12-13T03:02:22.496Z,93928.00
2023-12-13T03:03:22.580Z,93928.00
2023-12-13T03:04:22.565Z,93927.00
2023-12-13T03:05:22.497Z,93928.00
2023-12-13T03:06:22.464Z,93928.00
2023-12-13T03:07:22.460Z,93928.00
2023-12-13T03:08:22.449Z,93924.00
2023-12-13T03:09:22.429Z,93920.00
2023-12-13T03:10:22.470Z,93918.00
2023-12-13T03:11:22.422Z,93915.00
2023-12-13T03:12:22.409Z,93911.00
2023-12-13T03:13:22.412Z,93909.00
2023-12-13T03:14:22.853Z,93906.00
2023-12-13T03:15:23.345Z,93904.00
2023-12-13T03:16:24.700Z,93901.00
2023-12-13T03:17:22.383Z,93897.00
2023-12-13T03:18:22.411Z,93894.00
2023-12-13T03:19:22.425Z,93894.00
2023-12-13T03:20:22.380Z,93893.00
2023-12-13T03:21:22.331Z,93889.00
2023-12-13T03:22:22.346Z,93889.00
2023-12-13T03:23:22.347Z,93886.00
2023-12-13T03:24:22.312Z,93881.00
2023-12-13T03:25:22.342Z,93884.00
2023-12-13T03:26:22.301Z,93884.00
2023-12-13T03:27:22.286Z,93888.00
2023-12-13T03:28:22.316Z,93891.00
2023-12-13T03:29:22.261Z,93891.00
2023-12-13T03:30:22.265Z,93889.00
2023-12-13T03:31:22.278Z,93884.00
2023-12-13T03:32:22.238Z,93883.00
2023-12-13T03:33:22.430Z,93883.00
2023-12-13T03:34:22.325Z,93882.00
2023-12-13T03:35:22.209Z,93884.00
2023-12-13T03:36:22.234Z,93884.00
2023-12-13T03:37:22.212Z,93885.00
2023-12-13T03:38:22.184Z,93885.00
2023-12-13T03:39:22.182Z,93882.00
2023-12-13T03:40:22.195Z,93881.00
2023-12-13T03:41:22.162Z,93881.00
2023-12-13T03:42:22.148Z,93879.00
2023-12-13T03:43:22.165Z,93880.00
2023-12-13T03:44:22.131Z,93884.00
2023-12-13T03:45:22.127Z,93883.00
2023-12-13T03:46:22.168Z,93882.00
2023-12-13T03:47:22.193Z,93883.00
2023-12-13T03:48:22.179Z,93884.00
2023-12-13T03:49:22.251Z,93885.00
2023-12-13T03:50:22.138Z,93887.00
2023-12-13T03:51:22.132Z,93890.00
2023-12-13T03:52:22.113Z,93890.00
2023-12-13T03:53:22.065Z,93887.00
2023-12-13T03:54:22.046Z,93885.00
2023-12-13T03:55:22.066Z,93882.00
2023-12-13T03:56:22.022Z,93882.00
2023-12-13T03:57:22.030Z,93886.00
2023-12-13T03:58:22.019Z,93890.00
2023-12-13T03:59:22.001Z,93893.00
2023-12-13T04:00:22.021Z,93894.00
2023-12-13T04:01:22.076Z,93894.00
2023-12-13T04:02:22.006Z,93894.00
2023-12-13T04:03:22.034Z,93893.00
2023-12-13T04:04:22.144Z,93887.00
2023-12-13T04:05:22.010Z,93888.00
2023-12-13T04:06:22.019Z,93887.00
2023-12-13T04:07:21.986Z,93888.00
2023-12-13T04:08:21.945Z,93886.00
2023-12-13T04:09:21.915Z,93885.00
2023-12-13T04:10:21.933Z,93884.00
2023-12-13T04:11:21.895Z,93886.00
2023-12-13T04:12:21.889Z,93885.00
2023-12-13T04:13:21.945Z,93888.00
2023-12-13T04:14:21.875Z,93890.00
2023-12-13T04:15:21.860Z,93891.00
2023-12-13T04:16:21.905Z,93889.00
2023-12-13T04:17:21.844Z,93887.00
2023-12-13T04:18:21.890Z,93887.00
2023-12-13T04:19:21.881Z,93886.00
2023-12-13T04:20:21.820Z,93885.00
2023-12-13T04:21:21.803Z,93886.00
2023-12-13T04:22:21.871Z,93884.00
2023-12-13T04:23:21.793Z,93883.00
2023-12-13T04:24:21.818Z,93883.00
2023-12-13T04:25:21.824Z,93885.00
2023-12-13T04:26:21.763Z,93887.00
2023-12-13T04:27:21.752Z,93885.00
2023-12-13T04:28:21.818Z,93881.00
2023-12-13T04:29:21.733Z,93878.00
2023-12-13T04:30:21.753Z,93877.00
2023-12-13T04:31:21.746Z,93876.00
2023-12-13T04:32:21.709Z,93876.00
2023-12-13T04:33:21.758Z,93875.00
2023-12-13T04:34:21.727Z,93875.00
2023-12-13T04:35:21.688Z,93874.00
2023-12-13T04:36:21.672Z,93874.00
2023-12-13T04:37:21.710Z,93873.00
2023-12-13T04:38:21.666Z,93872.00
2023-12-13T04:39:20.651Z,93873.00
2023-12-13T04:40:21.742Z,93872.00
2023-12-13T04:41:21.638Z,93873.00
2023-12-13T04:42:21.626Z,93870.00
2023-12-13T04:43:21.629Z,93869.00
2023-12-13T04:44:21.618Z,93871.00
2023-12-13T04:45:21.614Z,93870.00
2023-12-13T04:46:21.658Z,93873.00
2023-12-13T04:47:21.591Z,93873.00
2023-12-13T04:48:21.674Z,93874.00
2023-12-13T04:49:21.738Z,93873.00
2023-12-13T04:50:21.552Z,93871.00
2023-12-13T04:51:21.701Z,93870.00
2023-12-13T04:52:21.594Z,93870.00
2023-12-13T04:53:21.531Z,93872.00
2023-12-13T04:54:21.531Z,93874.00
2023-12-13T04:55:21.520Z,93876.00
2023-12-13T04:56:21.533Z,93876.00
2023-12-13T04:57:21.523Z,93874.00
2023-12-13T04:58:21.539Z,93873.00
2023-12-13T04:59:21.489Z,93870.00
2023-12-13T05:00:21.468Z,93867.00
2023-12-13T05:01:21.577Z,93866.00
2023-12-13T05:02:21.455Z,93867.00
2023-12-13T05:03:21.463Z,93868.00
2023-12-13T05:04:21.468Z,93871.00
2023-12-13T05:05:21.455Z,93872.00
2023-12-13T05:06:21.416Z,93873.00
2023-12-13T05:07:21.475Z,93871.00
2023-12-13T05:08:21.396Z,93870.00
2023-12-13T05:09:21.400Z,93869.00
2023-12-13T05:10:21.469Z,93869.00
2023-12-13T05:11:21.364Z,93869.00
2023-12-13T05:12:21.388Z,93872.00
2023-12-13T05:13:21.367Z,93875.00
2023-12-13T05:14:21.347Z,93876.00
2023-12-13T05:15:21.339Z,93877.00
2023-12-13T05:16:21.368Z,93876.00
2023-12-13T05:17:21.340Z,93879.00
2023-12-13T05:18:21.310Z,93877.00
2023-12-13T05:19:21.461Z,93878.00
2023-12-13T05:20:21.338Z,93879.00
2023-12-13T05:21:21.290Z,93874.00
2023-12-13T05:22:21.307Z,93874.00
2023-12-13T05:23:21.261Z,93873.00
2023-12-13T05:24:20.256Z,93869.00
2023-12-13T05:25:21.269Z,93869.00
2023-12-13T05:26:21.237Z,93869.00
2023-12-13T05:27:21.219Z,93867.00
2023-12-13T05:28:21.281Z,93867.00
2023-12-13T05:29:21.209Z,93865.00
2023-12-13T05:30:21.263Z,93863.00
2023-12-13T05:31:21.228Z,93866.00
2023-12-13T05:32:21.194Z,93862.00
2023-12-13T05:33:21.239Z,93862.00
2023-12-13T05:34:21.224Z,93860.00
2023-12-13T05:35:21.169Z,93859.00
2023-12-13T05:36:21.151Z,93857.00
2023-12-13T05:37:21.155Z,93853.00
2023-12-13T05:38:21.132Z,93851.00
2023-12-13T05:39:20.116Z,93852.00
2023-12-13T05:40:21.151Z,93849.00
2023-12-13T05:41:21.099Z,93848.00
2023-12-13T05:42:21.092Z,93847.00
2023-12-13T05:43:23.220Z,93846.00
2023-12-13T05:44:21.110Z,93848.00
2023-12-13T05:45:21.072Z,93847.00
2023-12-13T05:46:21.090Z,93847.00
2023-12-13T05:47:20.054Z,93845.00
2023-12-13T05:48:21.116Z,93846.00
2023-12-13T05:49:21.154Z,93847.00
2023-12-13T05:50:21.097Z,93850.00
2023-12-13T05:51:21.016Z,93849.00
2023-12-13T05:52:21.023Z,93846.00
2023-12-13T05:53:21.001Z,93845.00
2023-12-13T05:54:20.997Z,93843.00
2023-12-13T05:55:20.077Z,93840.00
2023-12-13T05:56:20.967Z,93839.00
2023-12-13T05:57:20.963Z,93840.00
2023-12-13T05:58:20.991Z,93844.00
2023-12-13T05:59:20.982Z,93844.00
2023-12-13T06:00:20.966Z,93842.00
2023-12-13T06:01:20.984Z,93842.00
2023-12-13T06:02:20.934Z,93841.00
2023-12-13T06:03:20.940Z,93841.00
2023-12-13T06:04:20.979Z,93842.00
2023-12-13T06:05:21.004Z,93843.00
2023-12-13T06:06:20.893Z,93843.00
2023-12-13T06:07:20.913Z,93847.00
2023-12-13T06:08:20.868Z,93848.00
2023-12-13T06:09:20.856Z,93849.00
2023-12-13T06:10:20.939Z,93850.00
2023-12-13T06:11:20.841Z,93852.00
2023-12-13T06:12:20.834Z,93851.00
2023-12-13T06:13:20.822Z,93852.00
2023-12-13T06:14:20.918Z,93854.00
2023-12-13T06:15:20.910Z,93851.00
2023-12-13T06:16:20.995Z,93846.00
2023-12-13T06:17:19.792Z,93846.00
2023-12-13T06:18:21.020Z,93847.00
2023-12-13T06:19:20.876Z,93847.00
2023-12-13T06:20:20.787Z,93844.00
2023-12-13T06:21:20.778Z,93840.00
2023-12-13T06:22:20.794Z,93841.00
2023-12-13T06:23:20.736Z,93841.00
2023-12-13T06:24:20.725Z,93840.00
2023-12-13T06:25:20.737Z,93841.00
2023-12-13T06:26:20.703Z,93843.00
2023-12-13T06:27:20.711Z,93845.00
2023-12-13T06:28:21.735Z,93841.00
2023-12-13T06:29:20.683Z,93842.00
2023-12-13T06:30:20.943Z,93838.00
2023-12-13T06:31:20.679Z,93841.00
2023-12-13T06:32:20.681Z,93840.00
2023-12-13T06:33:20.726Z,93843.00
2023-12-13T06:34:20.737Z,93847.00
2023-12-13T06:35:20.662Z,93849.00
2023-12-13T06:36:20.933Z,93847.00
2023-12-13T06:37:20.659Z,93845.00
2023-12-13T06:38:20.624Z,93840.00
2023-12-13T06:39:20.632Z,93833.00
2023-12-13T06:40:21.611Z,93825.00
2023-12-13T06:41:20.929Z,93825.00
2023-12-13T06:42:20.640Z,93824.00
2023-12-13T06:43:20.671Z,93818.00
2023-12-13T06:44:20.575Z,93817.00
2023-12-13T06:45:20.941Z,93814.00
2023-12-13T06:46:20.968Z,93810.00
2023-12-13T06:47:21.449Z,93808.00
2023-12-13T06:48:20.631Z,93810.00
2023-12-13T06:49:20.600Z,93817.00
2023-12-13T06:50:20.500Z,93816.00
2023-12-13T06:51:20.946Z,93819.00
2023-12-13T06:52:20.495Z,93818.00
2023-12-13T06:53:20.484Z,93818.00
2023-12-13T06:54:20.483Z,93819.00
2023-12-13T06:55:20.538Z,93825.00
2023-12-13T06:56:21.962Z,93825.00
2023-12-13T06:57:20.438Z,93826.00
2023-12-13T06:58:20.478Z,93824.00
2023-12-13T06:59:21.444Z,93828.00
2023-12-13T07:00:20.426Z,93828.00
2023-12-13T07:01:20.493Z,93833.00
2023-12-13T07:02:20.945Z,93837.00
2023-12-13T07:03:20.576Z,93839.00
2023-12-13T07:04:22.543Z,93837.00
2023-12-13T07:05:21.506Z,93833.00
2023-12-13T07:06:20.443Z,93830.00
2023-12-13T07:07:20.418Z,93830.00
2023-12-13T07:08:19.384Z,93831.00
2023-12-13T07:09:20.376Z,93831.00
2023-12-13T07:10:20.411Z,93830.00
2023-12-13T07:11:20.441Z,93825.00
2023-12-13T07:12:20.407Z,93825.00
2023-12-13T07:13:20.353Z,93823.00
2023-12-13T07:14:20.326Z,93816.00
2023-12-13T07:15:20.354Z,93816.00
2023-12-13T07:16:20.471Z,93814.00
2023-12-13T07:17:20.309Z,93815.00
2023-12-13T07:18:20.446Z,93812.00
2023-12-13T07:19:20.346Z,93811.00
2023-12-13T07:20:20.312Z,93811.00
2023-12-13T07:21:21.543Z,93808.00
2023-12-13T07:22:20.291Z,93806.00
2023-12-13T07:23:20.252Z,93802.00
2023-12-13T07:24:19.394Z,93797.00
2023-12-13T07:25:20.314Z,93795.00
2023-12-13T07:26:20.457Z,93792.00
2023-12-13T07:27:20.229Z,93787.00
2023-12-13T07:28:19.274Z,93785.00
2023-12-13T07:29:20.199Z,93783.00
2023-12-13T07:30:20.274Z,93781.00
2023-12-13T07:31:20.451Z,93784.00
2023-12-13T07:32:20.204Z,93787.00
2023-12-13T07:33:20.287Z,93790.00
2023-12-13T07:34:20.398Z,93788.00
2023-12-13T07:35:20.373Z,93785.00
2023-12-13T07:36:20.497Z,93789.00
2023-12-13T07:37:20.347Z,93794.00
2023-12-13T07:38:20.232Z,93790.00
2023-12-13T07:39:20.282Z,93792.00
2023-12-13T07:40:20.305Z,93793.00
2023-12-13T07:41:19.179Z,93796.00
2023-12-13T07:42:20.451Z,93800.00
2023-12-13T07:43:19.186Z,93803.00
2023-12-13T07:44:20.199Z,93809.00
2023-12-13T07:45:20.134Z,93809.00
2023-12-13T07:46:19.466Z,93811.00
2023-12-13T07:47:20.222Z,93813.00
2023-12-13T07:48:27.341Z,93816.00
2023-12-13T07:49:20.536Z,93816.00
2023-12-13T07:50:20.364Z,93817.00
2023-12-13T07:51:20.859Z,93814.00
2023-12-13T07:52:20.312Z,93817.00
2023-12-13T07:53:19.166Z,93815.00
2023-12-13T07:54:20.282Z,93814.00
2023-12-13T07:55:20.190Z,93814.00
2023-12-13T07:56:24.739Z,93812.00
2023-12-13T07:57:20.122Z,93813.00
2023-12-13T07:58:20.815Z,93811.00
2023-12-13T07:59:21.575Z,93810.00
2023-12-13T08:00:20.002Z,93811.00
2023-12-13T08:01:20.062Z,93810.00
2023-12-13T08:02:20.484Z,93814.00
2023-12-13T08:03:20.032Z,93817.00
2023-12-13T08:04:20.016Z,93817.00
2023-12-13T08:05:19.995Z,93815.00
2023-12-13T08:06:20.444Z,93808.00
2023-12-13T08:07:20.105Z,93806.00
2023-12-13T08:08:20.120Z,93803.00
2023-12-13T08:09:20.062Z,93801.00
2023-12-13T08:10:19.963Z,93804.00
2023-12-13T08:11:19.960Z,93803.00
2023-12-13T08:12:19.895Z,93805.00
2023-12-13T08:13:19.956Z,93804.00
2023-12-13T08:14:19.919Z,93805.00
2023-12-13T08:15:19.904Z,93806.00
2023-12-13T08:16:20.033Z,93807.00
2023-12-13T08:17:19.877Z,93810.00
2023-12-13T08:18:19.918Z,93808.00
2023-12-13T08:19:19.888Z,93806.00
2023-12-13T08:20:19.832Z,93806.00
2023-12-13T08:21:19.952Z,93805.00
2023-12-13T08:22:19.823Z,93803.00
2023-12-13T08:23:19.812Z,93800.00
2023-12-13T08:24:19.824Z,93800.00
2023-12-13T08:25:19.807Z,93802.00
2023-12-13T08:26:19.301Z,93801.00
2023-12-13T08:27:19.791Z,93798.00
2023-12-13T08:28:19.777Z,93794.00
2023-12-13T08:29:19.777Z,93793.00
2023-12-13T08:30:19.793Z,93791.00
2023-12-13T08:31:24.099Z,93790.00
2023-12-13T08:32:19.817Z,93791.00
2023-12-13T08:33:22.973Z,93791.00
2023-12-13T08:34:19.745Z,93791.00
2023-12-13T08:35:19.724Z,93787.00
2023-12-13T08:36:19.968Z,93781.00
2023-12-13T08:37:19.718Z,93780.00
2023-12-13T08:38:19.876Z,93779.00
2023-12-13T08:39:19.736Z,93779.00
2023-12-13T08:40:19.699Z,93782.00
2023-12-13T08:41:19.698Z,93780.00
2023-12-13T08:42:19.963Z,93778.00
2023-12-13T08:43:19.644Z,93778.00
2023-12-13T08:44:21.119Z,93776.00
2023-12-13T08:45:19.610Z,93770.00
2023-12-13T08:46:19.991Z,93765.00
2023-12-13T08:47:19.971Z,93756.00
2023-12-13T08:48:19.711Z,93755.00
2023-12-13T08:49:19.739Z,93751.00
2023-12-13T08:50:19.599Z,93751.00
2023-12-13T08:51:19.975Z,93753.00
2023-12-13T08:52:20.009Z,93751.00
2023-12-13T08:53:19.535Z,93751.00
2023-12-13T08:54:19.546Z,93751.00
2023-12-13T08:55:27.090Z,93753.00
2023-12-13T08:56:19.512Z,93753.00
2023-12-13T08:57:27.379Z,93754.00
2023-12-13T08:58:19.504Z,93757.00
2023-12-13T08:59:19.495Z,93758.00
2023-12-13T09:00:20.460Z,93759.00
2023-12-13T09:01:23.252Z,93759.00
2023-12-13T09:02:19.570Z,93756.00
2023-12-13T09:03:19.566Z,93756.00
2023-12-13T09:04:18.476Z,93754.00
2023-12-13T09:06:20.500Z,93753.00
2023-12-13T09:07:19.479Z,93755.00
2023-12-13T09:08:19.478Z,93755.00
2023-12-13T09:09:19.394Z,93755.00
2023-12-13T09:10:19.420Z,93755.00
2023-12-13T09:11:19.396Z,93757.00
2023-12-13T09:12:19.366Z,93759.00
2023-12-13T09:13:19.509Z,93762.00
2023-12-13T09:14:19.341Z,93763.00
2023-12-13T09:15:19.329Z,93758.00
2023-12-13T09:16:19.336Z,93759.00
2023-12-13T09:17:19.318Z,93755.00
2023-12-13T09:18:19.641Z,93757.00
2023-12-13T09:19:19.350Z,93757.00
2023-12-13T09:20:19.381Z,93757.00
2023-12-13T09:21:20.288Z,93753.00
2023-12-13T09:22:19.380Z,93753.00
2023-12-13T09:23:19.611Z,93752.00
2023-12-13T09:24:19.255Z,93749.00
2023-12-13T09:25:19.301Z,93748.00
2023-12-13T09:26:19.306Z,93745.00
2023-12-13T09:27:19.264Z,93747.00
2023-12-13T09:28:20.040Z,93749.00
2023-12-13T09:29:19.231Z,93751.00
2023-12-13T09:30:19.228Z,93751.00
2023-12-13T09:31:19.574Z,93753.00
2023-12-13T09:32:19.178Z,93753.00
2023-12-13T09:33:19.266Z,93750.00
2023-12-13T09:34:19.188Z,93753.00
2023-12-13T09:35:19.519Z,93748.00
2023-12-13T09:36:19.154Z,93748.00
2023-12-13T09:37:19.515Z,93750.00
2023-12-13T09:38:19.526Z,93749.00
2023-12-13T09:39:19.128Z,93751.00
2023-12-13T09:40:19.173Z,93749.00
2023-12-13T09:41:19.115Z,93750.00
2023-12-13T09:42:19.098Z,93749.00
2023-12-13T09:43:19.583Z,93748.00
2023-12-13T09:44:19.078Z,93747.00
2023-12-13T09:45:19.557Z,93745.00
2023-12-13T09:46:19.075Z,93744.00
2023-12-13T09:47:19.091Z,93743.00
2023-12-13T09:48:18.095Z,93744.00
2023-12-13T09:49:28.288Z,93745.00
2023-12-13T09:50:19.310Z,93746.00
2023-12-13T09:51:50.852Z,93745.00
2023-12-13T09:52:19.056Z,93744.00
2023-12-13T09:53:18.994Z,93743.00
2023-12-13T09:54:18.997Z,93741.00
2023-12-13T09:55:19.223Z,93740.00
2023-12-13T09:56:18.965Z,93738.00
2023-12-13T09:57:18.965Z,93736.00
2023-12-13T09:58:18.981Z,93738.00
2023-12-13T09:59:18.971Z,93738.00
2023-12-13T10:00:18.925Z,93737.00
2023-12-13T10:01:19.058Z,93733.00
2023-12-13T10:02:18.978Z,93735.00
2023-12-13T10:03:18.949Z,93734.00
2023-12-13T10:04:18.909Z,93732.00
2023-12-13T10:05:19.024Z,93731.00
2023-12-13T10:06:18.986Z,93732.00
2023-12-13T10:07:18.917Z,93724.00
2023-12-13T10:08:19.217Z,93726.00
2023-12-13T10:09:18.902Z,93726.00
2023-12-13T10:10:18.993Z,93727.00
2023-12-13T10:11:18.999Z,93728.00
2023-12-13T10:12:17.887Z,93728.00
2023-12-13T10:13:18.900Z,93728.00
2023-12-13T10:14:18.861Z,93727.00
2023-12-13T10:15:18.892Z,93727.00
2023-12-13T10:16:19.084Z,93727.00
2023-12-13T10:17:20.404Z,93728.00
2023-12-13T10:18:19.121Z,93726.00
2023-12-13T10:19:19.125Z,93726.00
2023-12-13T10:20:19.062Z,93726.00
2023-12-13T10:21:19.036Z,93728.00
2023-12-13T10:22:19.109Z,93728.00
2023-12-13T10:23:19.130Z,93727.00
2023-12-13T10:24:18.006Z,93726.00
2023-12-13T10:25:19.025Z,93726.00
2023-12-13T10:26:18.998Z,93727.00
2023-12-13T10:27:19.001Z,93727.00
2023-12-13T10:28:19.012Z,93729.00
2023-12-13T10:29:18.958Z,93727.00
2023-12-13T10:30:18.993Z,93725.00
2023-12-13T10:31:19.007Z,93726.00
2023-12-13T10:32:17.936Z,93723.00
2023-12-13T10:33:19.013Z,93720.00
2023-12-13T10:34:18.983Z,93721.00
2023-12-13T10:35:18.923Z,93721.00
2023-12-13T10:36:18.510Z,93715.00
2023-12-13T10:37:19.146Z,93716.00
2023-12-13T10:38:19.106Z,93712.00
2023-12-13T10:39:19.082Z,93710.00
2023-12-13T10:40:19.502Z,93707.00
2023-12-13T10:41:18.506Z,93706.00
2023-12-13T10:42:19.059Z,93704.00
2023-12-13T10:43:19.545Z,93703.00
2023-12-13T10:44:19.141Z,93703.00
2023-12-13T10:45:20.046Z,93703.00
2023-12-13T10:46:20.035Z,93702.00
2023-12-13T10:47:19.593Z,93702.00
2023-12-13T10:48:19.612Z,93699.00
2023-12-13T10:49:19.054Z,93699.00
2023-12-13T10:50:18.994Z,93696.00
2023-12-13T10:51:18.987Z,93693.00
2023-12-13T10:52:19.005Z,93692.00
2023-12-13T10:53:19.010Z,93689.00
2023-12-13T10:54:18.956Z,93688.00
2023-12-13T10:55:19.104Z,93690.00
2023-12-13T10:56:18.949Z,93692.00
2023-12-13T10:57:19.044Z,93691.00
2023-12-13T10:58:19.021Z,93691.00
2023-12-13T10:59:18.916Z,93691.00
2023-12-13T11:00:18.923Z,93686.00
2023-12-13T11:01:18.974Z,93681.00
2023-12-13T11:02:19.011Z,93681.00
2023-12-13T11:03:18.920Z,93678.00
2023-12-13T11:04:18.944Z,93675.00
2023-12-13T11:05:18.891Z,93678.00
2023-12-13T11:06:18.918Z,93678.00
2023-12-13T11:07:22.536Z,93676.00
2023-12-13T11:08:18.842Z,93673.00
2023-12-13T11:09:19.832Z,93669.00
2023-12-13T11:10:18.884Z,93666.00
2023-12-13T11:11:18.812Z,93665.00
2023-12-13T11:12:18.800Z,93666.00
2023-12-13T11:13:18.818Z,93666.00
2023-12-13T11:14:18.897Z,93666.00
2023-12-13T11:15:18.804Z,93665.00
2023-12-13T11:16:18.873Z,93665.00
2023-12-13T11:17:18.802Z,93665.00
2023-12-13T11:18:18.785Z,93661.00
2023-12-13T11:19:18.778Z,93662.00
2023-12-13T11:20:20.437Z,93663.00
2023-12-13T11:21:18.721Z,93663.00
2023-12-13T11:22:19.061Z,93663.00
2023-12-13T11:23:18.700Z,93657.00
2023-12-13T11:24:18.717Z,93658.00
2023-12-13T11:25:19.223Z,93659.00
2023-12-13T11:26:18.685Z,93659.00
2023-12-13T11:27:20.049Z,93662.00
2023-12-13T11:28:17.681Z,93659.00
2023-12-13T11:29:19.021Z,93661.00
2023-12-13T11:30:18.689Z,93662.00
2023-12-13T11:31:18.646Z,93662.00
2023-12-13T11:32:19.180Z,93663.00
2023-12-13T11:33:18.720Z,93664.00
2023-12-13T11:34:19.111Z,93662.00
2023-12-13T11:35:18.839Z,93666.00
2023-12-13T11:36:18.592Z,93667.00
2023-12-13T11:37:18.595Z,93669.00
2023-12-13T11:38:19.580Z,93670.00
2023-12-13T11:39:19.026Z,93669.00
2023-12-13T11:40:18.598Z,93669.00
2023-12-13T11:41:18.545Z,93667.00
2023-12-13T11:42:19.026Z,93667.00
2023-12-13T11:43:18.540Z,93660.00
2023-12-13T11:44:18.517Z,93657.00
2023-12-13T11:45:18.510Z,93656.00
2023-12-13T11:46:18.594Z,93653.00
2023-12-13T11:47:18.482Z,93653.00
2023-12-13T11:48:18.641Z,93652.00
2023-12-13T11:49:18.667Z,93653.00
2023-12-13T11:50:18.468Z,93653.00
2023-12-13T11:51:18.480Z,93656.00
2023-12-13T11:52:18.545Z,93657.00
2023-12-13T11:53:18.429Z,93657.00
2023-12-13T11:54:18.432Z,93659.00
2023-12-13T11:55:20.333Z,93658.00
2023-12-13T11:56:18.409Z,93655.00
2023-12-13T11:57:17.538Z,93652.00
2023-12-13T11:58:18.435Z,93650.00
2023-12-13T11:59:18.381Z,93649.00
2023-12-13T12:00:18.373Z,93645.00
2023-12-13T12:01:18.431Z,93644.00
2023-12-13T12:02:18.654Z,93641.00
2023-12-13T12:03:18.344Z,93639.00
2023-12-13T12:04:18.445Z,93638.00
2023-12-13T12:05:18.427Z,93634.00
2023-12-13T12:06:18.414Z,93633.00
2023-12-13T12:07:18.654Z,93630.00
2023-12-13T12:08:18.325Z,93628.00
2023-12-13T12:09:18.292Z,93626.00
2023-12-13T12:10:18.324Z,93622.00
2023-12-13T12:11:18.288Z,93621.00
2023-12-13T12:12:18.560Z,93622.00
2023-12-13T12:13:18.283Z,93625.00
2023-12-13T12:14:18.265Z,93622.00
2023-12-13T12:15:18.248Z,93625.00
2023-12-13T12:16:18.248Z,93625.00
2023-12-13T12:17:18.541Z,93629.00
2023-12-13T12:18:18.630Z,93630.00
2023-12-13T12:19:18.372Z,93633.00
2023-12-13T12:20:18.324Z,93629.00
2023-12-13T12:21:18.216Z,93628.00
2023-12-13T12:22:18.222Z,93624.00
2023-12-13T12:23:18.216Z,93622.00
2023-12-13T12:24:18.158Z,93620.00
2023-12-13T12:25:18.205Z,93622.00
2023-12-13T12:26:18.146Z,93622.00
2023-12-13T12:27:18.135Z,93621.00
2023-12-13T12:28:18.158Z,93618.00
2023-12-13T12:29:18.117Z,93617.00
2023-12-13T12:30:18.159Z,93618.00
2023-12-13T12:31:20.023Z,93620.00
2023-12-13T12:32:18.123Z,93623.00
2023-12-13T12:33:18.679Z,93625.00
2023-12-13T12:34:18.168Z,93626.00